createdAt,value
2022-08-20T00:01:17.916Z,22.90
2022-08-20T00:04:03.857Z,22.60
2022-08-20T00:06:53.054Z,22.60
2022-08-20T00:09:38.640Z,22.90
2022-08-20T00:12:24.377Z,23.20
2022-08-20T00:15:10.592Z,22.90
2022-08-20T00:17:57.621Z,22.60
2022-08-20T00:20:47.286Z,22.80
2022-08-20T00:23:32.740Z,23.20
2022-08-20T00:26:19.455Z,23.30
2022-08-20T00:29:05.284Z,23.10
2022-08-20T00:31:51.056Z,22.90
2022-08-20T00:34:36.950Z,22.80
2022-08-20T00:37:22.479Z,22.70
2022-08-20T00:40:22.951Z,22.70
2022-08-20T00:43:27.541Z,22.60
2022-08-20T00:46:15.509Z,22.50
2022-08-20T00:49:03.697Z,22.50
2022-08-20T00:51:55.636Z,22.50
2022-08-20T00:54:49.707Z,22.40
2022-08-20T00:57:54.835Z,22.50
2022-08-20T01:00:49.605Z,22.70
2022-08-20T01:03:35.646Z,22.50
2022-08-20T01:06:21.418Z,22.20
2022-08-20T01:09:08.061Z,22.20
2022-08-20T01:11:54.737Z,22.30
2022-08-20T01:14:47.857Z,22.60
2022-08-20T01:17:36.794Z,22.70
2022-08-20T01:20:24.346Z,22.40
2022-08-20T01:23:32.689Z,22.00
2022-08-20T01:26:21.166Z,22.00
2022-08-20T01:29:13.033Z,21.80
2022-08-20T01:32:01.562Z,21.90
2022-08-20T01:34:47.255Z,22.00
2022-08-20T01:37:32.893Z,22.00
2022-08-20T01:40:29.493Z,22.50
2022-08-20T01:43:15.770Z,22.90
2022-08-20T01:46:04.114Z,23.00
2022-08-20T01:48:50.637Z,23.00
2022-08-20T01:51:36.327Z,23.00
2022-08-20T01:54:23.438Z,23.00
2022-08-20T01:57:15.602Z,23.00
2022-08-20T02:00:02.225Z,23.00
2022-08-20T02:02:51.769Z,22.90
2022-08-20T02:05:37.522Z,22.70
2022-08-20T02:08:24.698Z,22.60
2022-08-20T02:11:11.007Z,22.60
2022-08-20T02:13:58.183Z,22.60
2022-08-20T02:16:54.799Z,22.70
2022-08-20T02:19:48.183Z,22.50
2022-08-20T02:22:50.365Z,22.10
2022-08-20T02:25:37.933Z,21.50
2022-08-20T02:28:23.711Z,21.50
2022-08-20T02:31:09.199Z,21.40
2022-08-20T02:34:22.218Z,21.60
2022-08-20T02:37:05.350Z,22.00
2022-08-20T02:39:51.220Z,22.20
2022-08-20T02:42:37.025Z,22.40
2022-08-20T02:45:24.003Z,22.50
2022-08-20T02:48:20.755Z,22.40
2022-08-20T02:51:07.703Z,22.30
2022-08-20T02:53:53.641Z,22.30
2022-08-20T02:56:39.553Z,22.20
2022-08-20T02:59:25.532Z,22.30
2022-08-20T03:02:12.048Z,22.00
2022-08-20T03:04:57.843Z,22.00
2022-08-20T03:07:49.637Z,22.00
2022-08-20T03:10:36.974Z,22.00
2022-08-20T03:13:23.683Z,22.00
2022-08-20T03:16:10.447Z,21.90
2022-08-20T03:18:56.018Z,21.80
2022-08-20T03:21:42.195Z,21.80
2022-08-20T03:24:27.753Z,21.60
2022-08-20T03:27:13.699Z,21.10
2022-08-20T03:29:59.485Z,21.00
2022-08-20T03:32:46.814Z,20.80
2022-08-20T03:35:34.708Z,20.90
2022-08-20T03:38:32.932Z,21.10
2022-08-20T03:41:19.473Z,20.90
2022-08-20T03:44:06.798Z,21.00
2022-08-20T03:46:52.335Z,21.30
2022-08-20T03:49:38.100Z,21.40
2022-08-20T03:52:26.214Z,21.40
2022-08-20T03:55:11.667Z,21.50
2022-08-20T03:58:02.676Z,21.60
2022-08-20T04:00:50.448Z,21.50
2022-08-20T04:03:35.952Z,21.60
2022-08-20T04:06:21.449Z,21.60
2022-08-20T04:09:07.158Z,21.60
2022-08-20T04:11:58.737Z,21.70
2022-08-20T04:14:45.976Z,21.70
2022-08-20T04:17:33.520Z,21.50
2022-08-20T04:20:23.877Z,21.50
2022-08-20T04:23:10.167Z,21.10
2022-08-20T04:25:56.469Z,20.90
2022-08-20T04:28:42.469Z,21.10
2022-08-20T04:31:33.911Z,21.00
2022-08-20T04:34:19.616Z,21.00
2022-08-20T04:37:06.291Z,20.80
2022-08-20T04:40:25.335Z,21.10
2022-08-20T04:43:10.882Z,21.40
2022-08-20T04:46:01.273Z,21.40
2022-08-20T04:48:49.114Z,21.20
2022-08-20T04:51:36.187Z,21.10
2022-08-20T04:54:22.582Z,20.80
2022-08-20T04:57:08.767Z,20.60
2022-08-20T04:59:59.385Z,20.70
2022-08-20T05:02:45.258Z,20.80
2022-08-20T05:05:30.946Z,21.10
2022-08-20T05:08:20.129Z,21.00
2022-08-20T05:11:33.669Z,21.00
2022-08-20T05:14:15.468Z,21.10
2022-08-20T05:17:05.588Z,21.20
2022-08-20T05:19:53.082Z,21.40
2022-08-20T05:22:39.254Z,21.50
2022-08-20T05:25:25.330Z,22.00
2022-08-20T05:28:17.515Z,22.20
2022-08-20T05:31:04.579Z,22.20
2022-08-20T05:33:51.231Z,22.10
2022-08-20T05:36:45.499Z,22.20
2022-08-20T05:39:37.366Z,22.30
2022-08-20T05:42:23.272Z,22.30
2022-08-20T05:45:10.968Z,22.40
2022-08-20T05:47:58.604Z,22.40
2022-08-20T05:50:50.590Z,22.60
2022-08-20T05:53:37.685Z,23.40
2022-08-20T05:56:27.123Z,23.10
2022-08-20T05:59:14.675Z,23.40
2022-08-20T06:02:00.189Z,23.70
2022-08-20T06:04:46.006Z,24.00
2022-08-20T06:07:42.020Z,24.20
2022-08-20T06:10:27.692Z,24.20
2022-08-20T06:13:13.918Z,24.30
2022-08-20T06:16:01.617Z,24.50
2022-08-20T06:18:52.738Z,24.70
2022-08-20T06:21:44.006Z,24.20
2022-08-20T06:24:29.473Z,23.90
2022-08-20T06:27:16.352Z,24.20
2022-08-20T06:30:02.219Z,23.40
2022-08-20T06:32:47.857Z,24.40
2022-08-20T06:35:34.570Z,24.40
2022-08-20T06:38:21.664Z,24.70
2022-08-20T06:41:08.039Z,24.90
2022-08-20T06:43:53.981Z,24.40
2022-08-20T06:46:39.750Z,23.80
2022-08-20T06:49:25.517Z,24.40
2022-08-20T06:52:15.892Z,24.80
2022-08-20T06:55:04.713Z,25.10
2022-08-20T06:58:05.978Z,25.40
2022-08-20T07:00:53.170Z,25.30
2022-08-20T07:03:42.019Z,24.80
2022-08-20T07:06:28.414Z,25.10
2022-08-20T07:09:13.816Z,25.60
2022-08-20T07:11:59.420Z,25.80
2022-08-20T07:14:45.990Z,25.90
2022-08-20T07:17:31.736Z,26.20
2022-08-20T07:20:19.035Z,26.40
2022-08-20T07:23:05.790Z,26.20
2022-08-20T07:25:53.333Z,26.00
2022-08-20T07:28:38.970Z,26.10
2022-08-20T07:31:42.856Z,26.20
2022-08-20T07:34:28.380Z,26.50
2022-08-20T07:37:14.288Z,26.80
2022-08-20T07:39:59.725Z,26.70
2022-08-20T07:42:45.850Z,26.80
2022-08-20T07:45:31.551Z,26.70
2022-08-20T07:48:29.708Z,26.40
2022-08-20T07:51:20.504Z,26.60
2022-08-20T07:54:06.231Z,26.40
2022-08-20T07:56:52.784Z,26.50
2022-08-20T07:59:38.998Z,26.70
2022-08-20T08:02:25.570Z,26.80
2022-08-20T08:05:11.286Z,26.80
2022-08-20T08:07:57.526Z,27.00
2022-08-20T08:10:46.129Z,27.10
2022-08-20T08:13:46.057Z,27.00
2022-08-20T08:16:33.536Z,27.20
2022-08-20T08:19:19.660Z,27.30
2022-08-20T08:22:13.791Z,27.50
2022-08-20T08:25:02.415Z,27.60
2022-08-20T08:27:48.822Z,28.00
2022-08-20T08:30:34.499Z,28.60
2022-08-20T08:33:30.781Z,29.40
2022-08-20T08:36:17.861Z,30.00
2022-08-20T08:39:03.699Z,31.20
2022-08-20T08:41:51.164Z,32.20
2022-08-20T08:44:41.358Z,32.80
2022-08-20T08:47:30.357Z,32.50
2022-08-20T08:50:53.191Z,34.20
2022-08-20T08:53:40.523Z,33.80
2022-08-20T08:56:29.664Z,33.10
2022-08-20T08:59:15.548Z,32.80
2022-08-20T09:02:02.618Z,34.10
2022-08-20T09:04:48.499Z,34.50
2022-08-20T09:07:34.768Z,35.30
2022-08-20T09:10:23.321Z,34.90
2022-08-20T09:13:08.989Z,35.30
2022-08-20T09:15:54.731Z,35.00
2022-08-20T09:18:40.446Z,35.20
2022-08-20T09:21:25.982Z,36.10
2022-08-20T09:24:11.865Z,36.20
2022-08-20T09:26:57.332Z,36.00
2022-08-20T09:29:43.216Z,35.60
2022-08-20T09:32:28.917Z,35.60
2022-08-20T09:35:15.518Z,35.30
2022-08-20T09:38:02.613Z,36.90
2022-08-20T09:40:48.236Z,37.00
2022-08-20T09:43:33.740Z,37.70
2022-08-20T09:46:19.332Z,37.20
2022-08-20T09:49:12.853Z,38.00
2022-08-20T09:52:00.125Z,39.20
2022-08-20T09:54:46.551Z,38.70
2022-08-20T09:57:32.695Z,38.10
2022-08-20T10:00:19.137Z,37.40
2022-08-20T10:03:05.013Z,35.90
2022-08-20T10:05:50.510Z,37.60
2022-08-20T10:08:36.021Z,37.70
2022-08-20T10:11:21.737Z,37.60
2022-08-20T10:14:09.072Z,37.70
2022-08-20T10:16:59.970Z,37.70
2022-08-20T10:19:45.788Z,39.50
2022-08-20T10:22:32.786Z,39.80
2022-08-20T10:25:18.893Z,38.70
2022-08-20T10:28:05.820Z,38.40
2022-08-20T10:30:51.407Z,37.80
2022-08-20T10:33:37.147Z,38.20
2022-08-20T10:36:23.062Z,38.30
2022-08-20T10:39:09.451Z,38.30
2022-08-20T10:41:55.025Z,38.80
2022-08-20T10:44:41.048Z,38.30
2022-08-20T10:47:29.278Z,38.60
2022-08-20T10:50:17.012Z,39.40
2022-08-20T10:53:02.904Z,40.50
2022-08-20T10:55:48.425Z,40.00
2022-08-20T10:58:39.249Z,40.90
2022-08-20T11:01:32.956Z,39.70
2022-08-20T11:04:19.465Z,39.70
2022-08-20T11:07:17.619Z,38.60
2022-08-20T11:10:07.544Z,38.50
2022-08-20T11:12:55.518Z,38.40
2022-08-20T11:15:43.727Z,39.40
2022-08-20T11:18:30.031Z,39.10
2022-08-20T11:21:15.824Z,38.50
2022-08-20T11:24:03.096Z,38.90
2022-08-20T11:26:50.329Z,38.40
2022-08-20T11:29:39.418Z,38.60
2022-08-20T11:32:27.839Z,38.40
2022-08-20T11:35:41.196Z,39.20
2022-08-20T11:38:19.725Z,39.90
2022-08-20T11:41:05.801Z,38.70
2022-08-20T11:44:17.569Z,38.60
2022-08-20T11:47:03.112Z,39.20
2022-08-20T11:50:02.525Z,39.40
2022-08-20T11:52:49.016Z,38.80
2022-08-20T11:55:35.846Z,39.70
2022-08-20T11:58:21.744Z,40.70
2022-08-20T12:01:07.358Z,40.80
2022-08-20T12:03:53.179Z,40.20
2022-08-20T12:06:39.016Z,40.10
2022-08-20T12:09:24.945Z,40.20
2022-08-20T12:12:11.003Z,40.80
2022-08-20T12:14:59.570Z,41.50
2022-08-20T12:17:45.410Z,41.40
2022-08-20T12:20:31.254Z,40.10
2022-08-20T12:23:16.880Z,40.90
2022-08-20T12:26:03.387Z,41.00
2022-08-20T12:28:48.816Z,40.90
2022-08-20T12:31:34.213Z,40.50
2022-08-20T12:34:19.708Z,39.80
2022-08-20T12:37:15.917Z,40.80
2022-08-20T12:40:05.979Z,40.80
2022-08-20T12:42:51.655Z,42.00
2022-08-20T12:45:38.779Z,42.70
2022-08-20T12:48:24.660Z,41.70
2022-08-20T12:51:10.261Z,40.90
2022-08-20T12:53:56.222Z,41.00
2022-08-20T12:56:42.096Z,40.10
2022-08-20T12:59:27.951Z,39.90
2022-08-20T13:02:18.457Z,40.30
2022-08-20T13:05:06.211Z,39.90
2022-08-20T13:07:53.032Z,40.70
2022-08-20T13:10:44.359Z,39.30
2022-08-20T13:13:30.379Z,35.90
2022-08-20T13:16:16.652Z,35.90
2022-08-20T13:19:02.475Z,35.60
2022-08-20T13:21:54.781Z,34.60
2022-08-20T13:24:40.735Z,34.40
2022-08-20T13:27:26.619Z,33.90
2022-08-20T13:30:17.241Z,33.60
2022-08-20T13:33:04.393Z,33.00
2022-08-20T13:35:51.187Z,32.80
2022-08-20T13:38:36.950Z,32.50
2022-08-20T13:41:22.485Z,32.70
2022-08-20T13:44:07.935Z,32.70
2022-08-20T13:46:54.128Z,32.50
2022-08-20T13:49:39.821Z,32.50
2022-08-20T13:52:26.332Z,32.80
2022-08-20T13:55:15.782Z,32.50
2022-08-20T13:58:06.187Z,32.40
2022-08-20T14:00:51.664Z,32.70
2022-08-20T14:03:37.388Z,32.60
2022-08-20T14:06:24.559Z,32.70
2022-08-20T14:09:10.367Z,32.50
2022-08-20T14:11:56.021Z,32.50
2022-08-20T14:14:42.768Z,32.50
2022-08-20T14:17:35.030Z,32.60
2022-08-20T14:20:22.846Z,32.50
2022-08-20T14:23:09.228Z,32.50
2022-08-20T14:25:54.697Z,32.40
2022-08-20T14:28:43.225Z,32.20
2022-08-20T14:31:28.775Z,32.20
2022-08-20T14:34:16.987Z,32.60
2022-08-20T14:37:27.235Z,32.60
2022-08-20T14:40:16.715Z,32.60
2022-08-20T14:43:03.252Z,32.60
2022-08-20T14:45:49.091Z,32.80
2022-08-20T14:48:36.412Z,32.50
2022-08-20T14:51:24.506Z,32.70
2022-08-20T14:54:10.407Z,32.70
2022-08-20T14:57:01.927Z,32.70
2022-08-20T14:59:48.471Z,32.40
2022-08-20T15:02:33.893Z,32.40
2022-08-20T15:05:19.544Z,32.50
2022-08-20T15:08:05.063Z,32.40
2022-08-20T15:10:50.683Z,32.30
2022-08-20T15:13:36.324Z,32.40
2022-08-20T15:16:22.269Z,32.30
2022-08-20T15:19:09.586Z,32.40
2022-08-20T15:21:55.114Z,32.40
2022-08-20T15:24:40.837Z,32.30
2022-08-20T15:27:28.449Z,32.20
2022-08-20T15:30:20.473Z,32.20
2022-08-20T15:33:06.194Z,32.20
2022-08-20T15:35:53.046Z,32.10
2022-08-20T15:38:39.012Z,32.20
2022-08-20T15:41:24.525Z,32.20
2022-08-20T15:44:10.384Z,32.40
2022-08-20T15:46:55.778Z,32.20
2022-08-20T15:49:41.887Z,32.20
2022-08-20T15:52:32.385Z,32.30
2022-08-20T15:55:18.026Z,32.20
2022-08-20T15:58:12.726Z,32.20
2022-08-20T16:01:24.060Z,32.20
2022-08-20T16:04:34.714Z,32.30
2022-08-20T16:07:39.685Z,32.40
2022-08-20T16:10:36.599Z,32.40
2022-08-20T16:13:38.442Z,32.10
2022-08-20T16:16:36.069Z,31.90
2022-08-20T16:19:27.506Z,31.90
2022-08-20T16:22:18.685Z,32.10
2022-08-20T16:25:04.782Z,31.90
2022-08-20T16:27:56.980Z,31.90
2022-08-20T16:30:47.284Z,31.90
2022-08-20T16:33:38.792Z,31.80
2022-08-20T16:36:35.421Z,30.90
2022-08-20T16:39:28.374Z,31.90
2022-08-20T16:42:25.606Z,31.90
2022-08-20T16:45:25.527Z,31.90
2022-08-20T16:48:11.522Z,31.90
2022-08-20T16:51:06.902Z,32.00
2022-08-20T16:53:52.466Z,31.60
2022-08-20T16:56:42.378Z,31.50
2022-08-20T16:59:29.461Z,31.50
2022-08-20T17:02:19.179Z,31.70
2022-08-20T17:05:06.787Z,31.80
2022-08-20T17:07:58.912Z,31.70
2022-08-20T17:10:56.005Z,31.70
2022-08-20T17:13:44.678Z,32.00
2022-08-20T17:16:38.195Z,31.90
2022-08-20T17:19:28.660Z,31.70
2022-08-20T17:22:19.550Z,31.60
2022-08-20T17:25:19.025Z,31.50
2022-08-20T17:28:19.434Z,31.50
2022-08-20T17:31:05.342Z,31.50
2022-08-20T17:33:51.395Z,31.30
2022-08-20T17:36:47.212Z,31.20
2022-08-20T17:39:33.135Z,31.10
2022-08-20T17:42:26.099Z,31.00
2022-08-20T17:45:22.903Z,31.00
2022-08-20T17:48:27.578Z,30.90
2022-08-20T17:51:21.226Z,31.20
2022-08-20T17:54:16.335Z,30.90
2022-08-20T17:57:06.840Z,30.70
2022-08-20T18:00:01.671Z,30.80
2022-08-20T18:02:59.677Z,30.80
2022-08-20T18:05:54.210Z,30.70
2022-08-20T18:08:57.545Z,30.50
2022-08-20T18:11:45.211Z,30.40
2022-08-20T18:14:33.890Z,30.30
2022-08-20T18:17:38.814Z,30.10
2022-08-20T18:20:55.386Z,30.20
2022-08-20T18:24:18.943Z,30.10
2022-08-20T18:27:10.792Z,30.40
2022-08-20T18:30:00.483Z,30.20
2022-08-20T18:32:48.561Z,30.30
2022-08-20T18:35:45.842Z,30.10
2022-08-20T18:38:34.296Z,30.80
2022-08-20T18:41:39.324Z,30.00
2022-08-20T18:44:40.202Z,29.90
2022-08-20T18:47:34.745Z,29.60
2022-08-20T18:50:39.540Z,29.70
2022-08-20T18:53:31.675Z,29.50
2022-08-20T18:56:34.846Z,29.70
2022-08-20T18:59:21.162Z,29.70
2022-08-20T19:02:27.765Z,29.70
2022-08-20T19:05:15.884Z,29.50
2022-08-20T19:08:05.000Z,29.00
2022-08-20T19:11:52.105Z,28.60
2022-08-20T19:15:02.860Z,28.70
2022-08-20T19:18:01.931Z,28.70
2022-08-20T19:20:59.306Z,28.60
2022-08-20T19:23:52.236Z,28.50
2022-08-20T19:26:45.370Z,28.40
2022-08-20T19:29:37.965Z,27.40
2022-08-20T19:32:28.120Z,28.10
2022-08-20T19:35:17.885Z,27.80
2022-08-20T19:38:05.744Z,27.80
2022-08-20T19:40:55.993Z,27.50
2022-08-20T19:43:58.319Z,27.30
2022-08-20T19:46:46.040Z,27.60
2022-08-20T19:49:54.930Z,27.70
2022-08-20T19:53:18.136Z,27.80
2022-08-20T19:56:14.865Z,27.40
2022-08-20T19:59:06.234Z,27.30
2022-08-20T20:02:02.737Z,27.40
2022-08-20T20:04:55.024Z,27.20
2022-08-20T20:07:57.278Z,27.20
2022-08-20T20:10:44.212Z,26.90
2022-08-20T20:13:35.961Z,26.70
2022-08-20T20:16:25.277Z,26.20
2022-08-20T20:19:26.443Z,26.70
2022-08-20T20:22:19.971Z,26.70
2022-08-20T20:25:14.174Z,26.80
2022-08-20T20:28:13.535Z,26.70
2022-08-20T20:31:12.069Z,26.70
2022-08-20T20:34:03.538Z,26.80
2022-08-20T20:36:59.921Z,26.70
2022-08-20T20:39:57.631Z,26.70
2022-08-20T20:42:43.238Z,26.30
2022-08-20T20:45:42.078Z,26.30
2022-08-20T20:48:33.106Z,26.30
2022-08-20T20:51:53.331Z,26.30
2022-08-20T20:54:42.081Z,26.30
2022-08-20T20:57:38.213Z,26.20
2022-08-20T21:00:28.681Z,26.20
2022-08-20T21:03:14.169Z,26.30
2022-08-20T21:05:59.769Z,26.30
2022-08-20T21:08:45.468Z,26.10
2022-08-20T21:11:30.937Z,26.10
2022-08-20T21:14:16.753Z,26.10
2022-08-20T21:17:04.890Z,26.00
2022-08-20T21:19:52.257Z,25.90
2022-08-20T21:22:37.827Z,25.90
2022-08-20T21:25:23.964Z,25.80
2022-08-20T21:28:10.018Z,25.80
2022-08-20T21:30:58.493Z,25.90
2022-08-20T21:33:44.127Z,25.80
2022-08-20T21:36:29.624Z,25.70
2022-08-20T21:39:15.203Z,25.70
2022-08-20T21:42:04.637Z,25.70
2022-08-20T21:45:11.539Z,25.60
2022-08-20T21:47:57.488Z,25.60
2022-08-20T21:50:43.930Z,25.70
2022-08-20T21:53:29.499Z,25.40
2022-08-20T21:56:15.174Z,25.20
2022-08-20T21:59:02.045Z,25.40
2022-08-20T22:01:48.178Z,25.40
2022-08-20T22:04:35.749Z,25.30
2022-08-20T22:07:21.620Z,25.30
2022-08-20T22:10:07.690Z,25.30
2022-08-20T22:12:53.267Z,25.30
2022-08-20T22:15:40.527Z,25.30
2022-08-20T22:18:26.330Z,25.10
2022-08-20T22:21:16.281Z,24.90
2022-08-20T22:24:05.407Z,25.10
2022-08-20T22:26:50.722Z,25.10
2022-08-20T22:29:36.370Z,25.10
2022-08-20T22:32:22.078Z,25.20
2022-08-20T22:35:24.452Z,25.30
2022-08-20T22:38:10.594Z,25.10
2022-08-20T22:40:56.338Z,25.20
2022-08-20T22:43:46.209Z,25.30
2022-08-20T22:46:47.019Z,25.30
2022-08-20T22:49:36.724Z,25.20
2022-08-20T22:52:23.890Z,25.00
2022-08-20T22:57:59.983Z,24.00
2022-08-20T23:00:47.958Z,24.20
2022-08-20T23:03:39.711Z,24.30
2022-08-20T23:06:29.833Z,24.70
2022-08-20T23:09:16.073Z,24.80
2022-08-20T23:12:07.807Z,25.10
2022-08-20T23:14:53.355Z,25.20
2022-08-20T23:17:39.459Z,25.30
2022-08-20T23:20:25.126Z,25.30
2022-08-20T23:23:12.134Z,25.40
2022-08-20T23:25:57.785Z,25.40
2022-08-20T23:28:43.354Z,24.90
2022-08-20T23:31:28.813Z,24.70
2022-08-20T23:34:14.292Z,24.40
2022-08-20T23:37:01.048Z,24.60
2022-08-20T23:39:47.165Z,24.70
2022-08-20T23:42:32.970Z,24.60
2022-08-20T23:45:18.811Z,24.70
2022-08-20T23:48:04.942Z,25.10
2022-08-20T23:50:50.943Z,25.30
2022-08-20T23:53:36.553Z,25.30
2022-08-20T23:56:22.018Z,25.30
2022-08-20T23:59:07.593Z,25.00
